Time;durP1;ratioP1;P1;durP2;ratioP2;P2;SDS_P1;SDS_P2;PMS_P1;PMS_P2;Temp;Humidity;BMP_temperature;BMP_pressure;BME280_temperature;BME280_humidity;BME280_pressure;Samples;Min_cycle;Max_cycle;Signal;HPM_P1;HPM_P2
2021/12/26 00:01:20;;;;;;;25.38;20.65;;;;;;;;;;5052388;28;20039;-72
2021/12/26 00:03:48;;;;;;;16.90;15.10;;;;;;;;;;5052076;28;20033;-71
2021/12/26 00:06:22;;;;;;;17.52;14.57;;;;;;;;;;5051249;28;20053;-73
2021/12/26 00:08:56;;;;;;;15.18;13.57;;;;;;;;;;5052402;28;20448;-73
2021/12/26 00:11:24;;;;;;;17.40;15.15;;;;;;;;;;5052308;28;20067;-73
2021/12/26 00:13:53;;;;;;;32.60;24.98;;;;;;;;;;5051928;28;20545;-73
2021/12/26 00:16:20;;;;;;;30.90;24.92;;;;;;;;;;5053598;28;20491;-72
2021/12/26 00:18:47;;;;;;;21.52;19.27;;;;;;;;;;5056181;28;20131;-73
2021/12/26 00:21:17;;;;;;;18.27;15.57;;;;;;;;;;5056799;28;20045;-74
2021/12/26 00:23:44;;;;;;;21.13;16.08;;;;;;;;;;5055355;28;20396;-73
2021/12/26 00:26:11;;;;;;;18.58;16.70;;;;;;;;;;5056405;28;20055;-73
2021/12/26 00:28:39;;;;;;;19.95;17.80;;;;;;;;;;5055373;28;20045;-72
2021/12/26 00:31:06;;;;;;;25.05;21.65;;;;;;;;;;5055851;28;20121;-72
2021/12/26 00:33:35;;;;;;;23.73;20.60;;;;;;;;;;5054864;28;20037;-73
2021/12/26 00:36:03;;;;;;;27.52;22.23;;;;;;;;;;5054506;28;20051;-72
2021/12/26 00:38:30;;;;;;;22.38;19.83;;;;;;;;;;5056037;28;20049;-71
2021/12/26 00:40:57;;;;;;;25.60;20.58;;;;;;;;;;5055638;28;20041;-73
2021/12/26 00:43:24;;;;;;;25.58;21.70;;;;;;;;;;5055756;28;20044;-71
2021/12/26 00:45:51;;;;;;;22.08;19.73;;;;;;;;;;5054568;28;20049;-72
2021/12/26 00:48:18;;;;;;;24.50;21.92;;;;;;;;;;5054359;28;20128;-72
2021/12/26 00:50:46;;;;;;;24.13;21.63;;;;;;;;;;5054600;28;20061;-72
2021/12/26 00:53:13;;;;;;;25.70;21.35;;;;;;;;;;5054361;28;20090;-71
2021/12/26 00:55:40;;;;;;;20.00;17.55;;;;;;;;;;5056114;28;20052;-73
2021/12/26 00:58:08;;;;;;;20.75;18.40;;;;;;;;;;5054169;28;20047;-73
2021/12/26 01:00:39;;;;;;;24.52;21.50;;;;;;;;;;5054398;28;20080;-71
2021/12/26 01:03:07;;;;;;;32.83;24.77;;;;;;;;;;5053962;28;20049;-71
2021/12/26 01:05:35;;;;;;;28.52;21.75;;;;;;;;;;5054440;28;20037;-70
2021/12/26 01:08:04;;;;;;;27.80;23.02;;;;;;;;;;5055335;28;20083;-71
2021/12/26 01:10:39;;;;;;;27.70;21.00;;;;;;;;;;5054074;28;20045;-70
2021/12/26 01:13:16;;;;;;;27.52;23.88;;;;;;;;;;5054311;28;20041;-70
2021/12/26 01:15:45;;;;;;;26.83;23.92;;;;;;;;;;5054082;28;20595;-73
2021/12/26 01:18:20;;;;;;;33.28;24.65;;;;;;;;;;5053967;28;20045;-73
2021/12/26 01:20:59;;;;;;;26.38;21.40;;;;;;;;;;5053962;28;20053;-72
2021/12/26 01:23:29;;;;;;;22.85;20.00;;;;;;;;;;5054094;28;20049;-72
2021/12/26 01:25:57;;;;;;;23.13;19.73;;;;;;;;;;5053580;28;20041;-72
2021/12/26 01:28:28;;;;;;;18.98;16.98;;;;;;;;;;5038002;28;20463;-72
2021/12/26 01:30:59;;;;;;;22.48;20.08;;;;;;;;;;5053386;28;20052;-72
2021/12/26 01:33:27;;;;;;;21.58;19.30;;;;;;;;;;5055420;28;20120;-72
2021/12/26 01:36:12;;;;;;;19.10;16.98;;;;;;;;;;5054665;28;20059;-73
2021/12/26 01:38:57;;;;;;;22.05;17.52;;;;;;;;;;5053829;28;20049;-72
2021/12/26 01:41:39;;;;;;;18.88;16.85;;;;;;;;;;5053498;28;20049;-71
2021/12/26 01:44:27;;;;;;;20.00;18.00;;;;;;;;;;5043920;28;20049;-72
2021/12/26 01:46:55;;;;;;;18.83;16.83;;;;;;;;;;5053285;28;20052;-71
2021/12/26 01:49:30;;;;;;;19.58;17.52;;;;;;;;;;5054942;28;20045;-70
2021/12/26 01:52:00;;;;;;;19.48;17.45;;;;;;;;;;5052969;28;20041;-71
2021/12/26 01:54:39;;;;;;;19.33;17.25;;;;;;;;;;5053505;28;20111;-71
2021/12/26 01:57:08;;;;;;;18.10;16.30;;;;;;;;;;5053329;28;20091;-69
2021/12/26 01:59:35;;;;;;;20.05;17.95;;;;;;;;;;5053067;28;20406;-72
2021/12/26 02:02:09;;;;;;;20.75;18.55;;;;;;;;;;5053347;28;20064;-72
2021/12/26 02:04:38;;;;;;;22.85;19.25;;;;;;;;;;5052859;28;20049;-72
2021/12/26 02:07:07;;;;;;;21.48;19.35;;;;;;;;;;5054549;28;20048;-72
2021/12/26 02:09:34;;;;;;;21.00;18.88;;;;;;;;;;5052778;28;20496;-72
2021/12/26 02:12:04;;;;;;;21.13;17.63;;;;;;;;;;5053111;28;20104;-72
2021/12/26 02:14:32;;;;;;;20.17;17.45;;;;;;;;;;5052949;28;20041;-71
2021/12/26 02:17:18;;;;;;;19.38;17.30;;;;;;;;;;5054557;28;20041;-71
2021/12/26 02:19:47;;;;;;;19.55;17.48;;;;;;;;;;5052675;28;20068;-71
2021/12/26 02:22:25;;;;;;;21.20;18.98;;;;;;;;;;5053184;28;20049;-72
2021/12/26 02:25:08;;;;;;;21.77;19.42;;;;;;;;;;5052460;28;20517;-72
2021/12/26 02:27:42;;;;;;;21.90;19.67;;;;;;;;;;5052837;28;20056;-73
2021/12/26 02:30:13;;;;;;;19.75;17.25;;;;;;;;;;5052472;28;20079;-72
2021/12/26 02:32:48;;;;;;;18.13;16.23;;;;;;;;;;5052622;28;20487;-72
2021/12/26 02:35:17;;;;;;;19.38;17.33;;;;;;;;;;5052173;28;20067;-72
2021/12/26 02:37:45;;;;;;;17.33;15.60;;;;;;;;;;5052278;28;20098;-68
2021/12/26 02:40:13;;;;;;;16.77;14.98;;;;;;;;;;5051874;28;20040;-70
2021/12/26 02:42:41;;;;;;;16.90;15.18;;;;;;;;;;5053494;28;20136;-70
2021/12/26 02:45:08;;;;;;;15.75;13.80;;;;;;;;;;5052604;28;20052;-70
2021/12/26 02:47:42;;;;;;;15.77;13.38;;;;;;;;;;5052150;28;20056;-71
2021/12/26 02:50:13;;;;;;;16.08;14.43;;;;;;;;;;5052566;28;20403;-70
2021/12/26 02:52:40;;;;;;;14.68;12.75;;;;;;;;;;5053099;28;20044;-71
2021/12/26 02:55:09;;;;;;;13.20;11.90;;;;;;;;;;5052465;28;20036;-71
2021/12/26 02:57:37;;;;;;;11.75;10.27;;;;;;;;;;5051987;28;20049;-71
2021/12/26 03:00:10;;;;;;;10.88;9.77;;;;;;;;;;5053072;28;20396;-72
2021/12/26 03:02:45;;;;;;;10.52;9.52;;;;;;;;;;5051985;28;20045;-71
2021/12/26 03:05:13;;;;;;;10.57;9.23;;;;;;;;;;5052968;28;20044;-72
2021/12/26 03:07:40;;;;;;;8.63;7.72;;;;;;;;;;5053175;28;20086;-71
2021/12/26 03:10:11;;;;;;;9.23;7.28;;;;;;;;;;5051680;28;20049;-72
2021/12/26 03:12:42;;;;;;;7.53;6.75;;;;;;;;;;5053220;28;20045;-71
2021/12/26 03:15:10;;;;;;;8.35;7.55;;;;;;;;;;5051416;28;20464;-71
2021/12/26 03:17:38;;;;;;;7.95;7.22;;;;;;;;;;5051833;28;20041;-72
2021/12/26 03:20:10;;;;;;;10.00;8.88;;;;;;;;;;5045273;28;20047;-73
2021/12/26 03:22:37;;;;;;;9.35;8.35;;;;;;;;;;5044364;28;20041;-73
2021/12/26 03:25:11;;;;;;;10.18;9.18;;;;;;;;;;5031648;28;20122;-73
2021/12/26 03:27:38;;;;;;;9.68;8.73;;;;;;;;;;5031728;28;20053;-72
2021/12/26 03:30:06;;;;;;;8.82;7.95;;;;;;;;;;5031867;28;20048;-73
2021/12/26 03:32:36;;;;;;;9.50;8.13;;;;;;;;;;5031434;28;20072;-72
2021/12/26 03:35:04;;;;;;;9.82;8.15;;;;;;;;;;5033389;28;20065;-72
2021/12/26 03:37:31;;;;;;;8.50;7.63;;;;;;;;;;5031138;28;20128;-72
2021/12/26 03:40:06;;;;;;;8.18;7.38;;;;;;;;;;5031866;28;20467;-72
2021/12/26 03:42:33;;;;;;;8.48;7.60;;;;;;;;;;5031343;28;20459;-72
2021/12/26 03:45:03;;;;;;;8.13;7.32;;;;;;;;;;5032540;28;20130;-72
2021/12/26 03:47:31;;;;;;;12.57;11.35;;;;;;;;;;5030974;28;20045;-73
2021/12/26 03:49:59;;;;;;;13.43;12.13;;;;;;;;;;5015194;28;20075;-73
2021/12/26 03:52:27;;;;;;;15.90;14.00;;;;;;;;;;5031074;28;20061;-73
2021/12/26 03:54:56;;;;;;;14.50;13.00;;;;;;;;;;5031375;28;20046;-70
2021/12/26 03:57:23;;;;;;;18.77;16.15;;;;;;;;;;5031493;28;20136;-70
2021/12/26 03:59:50;;;;;;;16.55;14.77;;;;;;;;;;5032335;28;20058;-71
2021/12/26 04:02:18;;;;;;;16.67;14.90;;;;;;;;;;5031445;28;20574;-71
2021/12/26 04:04:46;;;;;;;17.25;15.52;;;;;;;;;;5031001;28;20052;-71
2021/12/26 04:07:13;;;;;;;16.13;14.40;;;;;;;;;;5031665;28;20111;-71
2021/12/26 04:09:40;;;;;;;18.00;16.20;;;;;;;;;;5032318;28;20038;-71
2021/12/26 04:12:11;;;;;;;17.58;15.75;;;;;;;;;;5031406;28;20099;-71
2021/12/26 04:14:38;;;;;;;21.17;18.98;;;;;;;;;;5031230;28;20049;-71
2021/12/26 04:17:05;;;;;;;23.42;21.15;;;;;;;;;;5030761;28;20120;-71
2021/12/26 04:19:34;;;;;;;21.83;19.48;;;;;;;;;;5031353;28;20046;-71
2021/12/26 04:22:02;;;;;;;20.92;18.00;;;;;;;;;;5030924;28;20400;-71
2021/12/26 04:24:30;;;;;;;19.08;16.45;;;;;;;;;;5031192;28;20053;-71
2021/12/26 04:26:59;;;;;;;20.20;15.98;;;;;;;;;;5032007;28;20041;-71
2021/12/26 04:29:26;;;;;;;16.52;14.57;;;;;;;;;;5031326;28;20064;-71
2021/12/26 04:31:53;;;;;;;21.35;16.38;;;;;;;;;;5030738;28;20045;-71
2021/12/26 04:34:23;;;;;;;33.03;25.27;;;;;;;;;;5031173;28;20041;-71
2021/12/26 04:36:50;;;;;;;17.80;15.82;;;;;;;;;;5031238;28;20053;-72
2021/12/26 04:39:17;;;;;;;15.57;13.98;;;;;;;;;;5038507;28;20091;-72
2021/12/26 04:41:46;;;;;;;13.65;11.63;;;;;;;;;;5037530;28;20492;-71
2021/12/26 04:44:47;;;;;;;9.63;8.63;;;;;;;;;;5047357;28;20037;-71
2021/12/26 04:47:33;;;;;;;9.55;8.52;;;;;;;;;;5032479;28;20044;-71
2021/12/26 04:50:00;;;;;;;10.05;9.02;;;;;;;;;;5030577;28;20045;-71
2021/12/26 04:52:43;;;;;;;10.73;9.65;;;;;;;;;;5032664;28;20041;-71
2021/12/26 04:55:17;;;;;;;6.63;5.93;;;;;;;;;;5037914;28;20041;-71
2021/12/26 04:57:44;;;;;;;7.15;6.45;;;;;;;;;;5031958;28;20072;-71
2021/12/26 05:00:14;;;;;;;6.85;6.15;;;;;;;;;;5034386;28;20072;-72
2021/12/26 05:02:41;;;;;;;6.43;5.82;;;;;;;;;;5034768;28;20038;-71
2021/12/26 05:05:10;;;;;;;6.50;5.38;;;;;;;;;;5034425;28;20049;-71
2021/12/26 05:07:38;;;;;;;5.78;5.28;;;;;;;;;;5036041;28;20034;-72
2021/12/26 05:10:06;;;;;;;6.30;5.70;;;;;;;;;;5040594;28;20502;-72
2021/12/26 05:12:36;;;;;;;5.93;5.40;;;;;;;;;;5034648;28;20049;-71
2021/12/26 05:15:08;;;;;;;7.30;5.50;;;;;;;;;;5035941;28;20045;-72
2021/12/26 05:17:37;;;;;;;7.22;6.53;;;;;;;;;;5035202;28;20526;-72
2021/12/26 05:20:06;;;;;;;6.15;5.57;;;;;;;;;;5035885;28;20155;-72
2021/12/26 05:22:34;;;;;;;6.93;6.22;;;;;;;;;;5035224;28;20511;-68
2021/12/26 05:25:03;;;;;;;7.40;6.43;;;;;;;;;;5034330;28;20120;-68
2021/12/26 05:27:30;;;;;;;6.97;6.25;;;;;;;;;;5039832;28;20408;-68
2021/12/26 05:29:57;;;;;;;9.18;4.72;;;;;;;;;;5054984;28;20075;-68
2021/12/26 05:32:24;;;;;;;6.20;5.60;;;;;;;;;;5048129;28;20041;-68
2021/12/26 05:34:52;;;;;;;6.47;4.80;;;;;;;;;;5034103;28;20056;-69
2021/12/26 05:37:19;;;;;;;5.25;4.75;;;;;;;;;;5033636;28;20049;-68
2021/12/26 05:39:46;;;;;;;5.43;4.93;;;;;;;;;;5035099;28;20049;-68
2021/12/26 05:42:16;;;;;;;5.13;4.63;;;;;;;;;;5050487;28;20048;-69
2021/12/26 05:44:44;;;;;;;5.78;5.28;;;;;;;;;;5031986;28;20488;-69
2021/12/26 05:47:11;;;;;;;5.43;4.93;;;;;;;;;;5033993;28;20594;-69
2021/12/26 05:49:53;;;;;;;5.35;4.40;;;;;;;;;;5033343;28;20041;-69
2021/12/26 05:52:20;;;;;;;5.97;5.38;;;;;;;;;;5033697;28;20045;-68
2021/12/26 05:54:52;;;;;;;6.07;5.57;;;;;;;;;;5033336;28;20073;-69
2021/12/26 05:57:19;;;;;;;6.38;5.82;;;;;;;;;;5033589;28;20183;-68
2021/12/26 05:59:47;;;;;;;6.13;5.63;;;;;;;;;;5033159;28;20038;-68
2021/12/26 06:02:14;;;;;;;5.55;5.05;;;;;;;;;;5033538;28;20522;-69
2021/12/26 06:04:43;;;;;;;6.95;6.25;;;;;;;;;;5033195;28;20120;-68
2021/12/26 06:07:12;;;;;;;8.23;7.43;;;;;;;;;;5033536;28;20095;-68
2021/12/26 06:09:39;;;;;;;9.95;8.60;;;;;;;;;;5033340;28;20041;-69
2021/12/26 06:12:07;;;;;;;9.43;8.45;;;;;;;;;;5032919;28;20052;-69
2021/12/26 06:14:35;;;;;;;9.18;8.27;;;;;;;;;;5032488;28;20041;-68
2021/12/26 06:17:03;;;;;;;9.45;8.32;;;;;;;;;;5034358;28;20091;-68
2021/12/26 06:20:04;;;;;;;10.18;9.18;;;;;;;;;;5026406;28;20045;-68
2021/12/26 06:22:37;;;;;;;10.68;9.57;;;;;;;;;;5032813;28;20124;-68
2021/12/26 06:25:04;;;;;;;10.73;9.63;;;;;;;;;;5034595;28;20072;-69
2021/12/26 06:27:44;;;;;;;10.45;9.45;;;;;;;;;;5050506;28;20044;-68
2021/12/26 06:30:29;;;;;;;10.45;9.20;;;;;;;;;;5054494;28;20051;-67
2021/12/26 06:33:14;;;;;;;14.02;10.82;;;;;;;;;;5048210;28;20142;-67
2021/12/26 06:36:00;;;;;;;12.93;11.52;;;;;;;;;;5036618;28;20056;-70
2021/12/26 06:38:45;;;;;;;14.77;13.18;;;;;;;;;;5036549;28;20067;-68
2021/12/26 06:41:45;;;;;;;13.88;12.48;;;;;;;;;;5020810;28;20080;-70
2021/12/26 06:44:30;;;;;;;14.65;13.10;;;;;;;;;;5034529;28;20052;-69
2021/12/26 06:47:12;;;;;;;13.90;12.20;;;;;;;;;;5044651;28;20049;-69
2021/12/26 06:49:42;;;;;;;14.52;12.98;;;;;;;;;;5043298;28;20037;-70
2021/12/26 06:52:09;;;;;;;14.63;13.13;;;;;;;;;;5048533;28;20041;-70
2021/12/26 06:54:40;;;;;;;14.82;13.15;;;;;;;;;;5047766;28;20044;-70
2021/12/26 06:57:07;;;;;;;14.82;13.30;;;;;;;;;;5050041;28;20071;-70
2021/12/26 06:59:34;;;;;;;14.75;12.73;;;;;;;;;;5050613;28;20483;-65
2021/12/26 07:02:02;;;;;;;15.73;12.18;;;;;;;;;;5049800;28;20129;-65
2021/12/26 07:04:58;;;;;;;12.00;10.77;;;;;;;;;;5039401;28;20491;-65
2021/12/26 07:07:35;;;;;;;11.10;10.00;;;;;;;;;;5050204;28;20095;-66
2021/12/26 07:10:02;;;;;;;11.45;9.88;;;;;;;;;;5049073;28;20038;-66
2021/12/26 07:12:29;;;;;;;15.13;12.50;;;;;;;;;;5050762;28;20037;-64
2021/12/26 07:15:13;;;;;;;12.68;11.32;;;;;;;;;;5047169;28;20087;-66
2021/12/26 07:17:46;;;;;;;12.27;10.63;;;;;;;;;;5040884;28;20098;-67
2021/12/26 07:20:14;;;;;;;12.18;10.77;;;;;;;;;;5048461;28;20570;-67
2021/12/26 07:22:59;;;;;;;11.32;10.00;;;;;;;;;;5044930;28;20164;-67
2021/12/26 07:25:26;;;;;;;13.65;11.68;;;;;;;;;;5045383;28;20044;-68
2021/12/26 07:27:53;;;;;;;12.63;11.32;;;;;;;;;;5046061;28;20037;-67
2021/12/26 07:30:44;;;;;;;13.02;10.80;;;;;;;;;;5021786;28;20053;-67
2021/12/26 07:33:11;;;;;;;12.73;11.38;;;;;;;;;;5047003;28;20041;-68
2021/12/26 07:35:41;;;;;;;19.17;14.60;;;;;;;;;;5050834;28;20056;-68
2021/12/26 07:38:39;;;;;;;13.90;12.20;;;;;;;;;;5034161;28;20053;-67
2021/12/26 07:41:24;;;;;;;16.08;13.45;;;;;;;;;;5052913;28;20048;-64
2021/12/26 07:43:52;;;;;;;13.10;11.10;;;;;;;;;;5047284;28;20124;-64
2021/12/26 07:46:37;;;;;;;15.02;12.32;;;;;;;;;;5051015;28;20478;-66
2021/12/26 07:49:14;;;;;;;14.93;12.93;;;;;;;;;;5049314;28;20045;-65
2021/12/26 07:51:59;;;;;;;18.05;15.85;;;;;;;;;;5048240;28;20071;-65
2021/12/26 07:54:45;;;;;;;27.52;21.00;;;;;;;;;;5048806;28;20072;-66
2021/12/26 07:57:31;;;;;;;23.20;18.85;;;;;;;;;;5046271;28;20052;-64
2021/12/26 08:00:18;;;;;;;20.20;16.98;;;;;;;;;;5046707;28;20706;-67
2021/12/26 08:03:03;;;;;;;18.15;15.65;;;;;;;;;;5048382;28;20044;-65
2021/12/26 08:05:48;;;;;;;17.23;15.10;;;;;;;;;;5041463;28;20095;-66
2021/12/26 08:08:39;;;;;;;16.85;13.75;;;;;;;;;;5046681;28;20123;-66
2021/12/26 08:11:06;;;;;;;18.45;16.08;;;;;;;;;;5048629;28;20124;-64
2021/12/26 08:13:34;;;;;;;18.55;15.55;;;;;;;;;;5042622;28;20072;-68
2021/12/26 08:16:01;;;;;;;18.67;15.80;;;;;;;;;;5038240;28;20116;-66
2021/12/26 08:18:28;;;;;;;19.85;16.92;;;;;;;;;;5046140;28;20144;-66
2021/12/26 08:20:55;;;;;;;19.75;17.63;;;;;;;;;;5047267;28;20041;-65
2021/12/26 08:23:22;;;;;;;21.48;18.27;;;;;;;;;;5047337;28;20057;-67
2021/12/26 08:25:49;;;;;;;20.83;18.60;;;;;;;;;;5047806;28;20041;-64
2021/12/26 08:28:16;;;;;;;22.83;19.17;;;;;;;;;;5042037;28;20041;-65
2021/12/26 08:30:44;;;;;;;20.10;18.15;;;;;;;;;;5036159;28;20041;-64
2021/12/26 08:33:10;;;;;;;21.95;18.35;;;;;;;;;;5040054;28;20047;-67
2021/12/26 08:35:41;;;;;;;17.20;15.30;;;;;;;;;;5041880;28;20045;-66
2021/12/26 08:38:08;;;;;;;24.13;20.85;;;;;;;;;;5044073;28;20426;-68
2021/12/26 08:40:35;;;;;;;25.80;21.55;;;;;;;;;;5038858;28;20048;-66
2021/12/26 08:43:02;;;;;;;27.00;20.45;;;;;;;;;;5039758;28;20048;-66
2021/12/26 08:45:30;;;;;;;22.30;19.27;;;;;;;;;;5039478;28;20404;-66
2021/12/26 08:48:01;;;;;;;27.60;23.48;;;;;;;;;;5042185;28;20450;-66
2021/12/26 08:50:28;;;;;;;27.20;22.33;;;;;;;;;;5053982;28;20033;-67
2021/12/26 08:52:55;;;;;;;23.65;21.13;;;;;;;;;;5044262;28;20139;-60
2021/12/26 08:55:24;;;;;;;24.85;21.15;;;;;;;;;;5045763;28;20433;-60
2021/12/26 08:57:52;;;;;;;21.88;19.52;;;;;;;;;;5045362;28;20048;-62
2021/12/26 09:00:21;;;;;;;22.52;19.58;;;;;;;;;;5041832;28;20088;-62
2021/12/26 09:02:49;;;;;;;24.40;20.25;;;;;;;;;;5044257;28;20036;-62
2021/12/26 09:05:16;;;;;;;25.77;21.00;;;;;;;;;;5045982;28;20372;-61
2021/12/26 09:07:43;;;;;;;24.30;19.38;;;;;;;;;;5046345;28;20098;-63
2021/12/26 09:10:12;;;;;;;23.00;20.35;;;;;;;;;;5043768;28;20160;-62
2021/12/26 09:12:40;;;;;;;20.67;18.42;;;;;;;;;;5038059;28;20376;-62
2021/12/26 09:15:09;;;;;;;27.85;21.35;;;;;;;;;;5041200;28;20115;-62
2021/12/26 09:17:36;;;;;;;30.77;24.45;;;;;;;;;;5043808;28;20541;-62
2021/12/26 09:20:05;;;;;;;29.00;22.95;;;;;;;;;;5043011;28;20495;-62
2021/12/26 09:22:32;;;;;;;24.73;21.63;;;;;;;;;;5042438;28;20041;-62
2021/12/26 09:24:59;;;;;;;25.02;20.65;;;;;;;;;;5042849;28;20095;-67
2021/12/26 09:27:26;;;;;;;27.10;22.95;;;;;;;;;;5046153;28;20040;-61
2021/12/26 09:29:53;;;;;;;29.52;23.52;;;;;;;;;;5041859;28;20048;-62
2021/12/26 09:32:23;;;;;;;27.38;22.75;;;;;;;;;;5041864;28;20191;-60
2021/12/26 09:34:50;;;;;;;28.25;23.52;;;;;;;;;;5045648;28;20048;-62
2021/12/26 09:37:17;;;;;;;27.52;21.13;;;;;;;;;;5048473;28;20064;-67
2021/12/26 09:39:44;;;;;;;23.02;20.30;;;;;;;;;;5044596;28;20041;-66
2021/12/26 09:42:11;;;;;;;22.77;20.30;;;;;;;;;;5044824;28;20033;-61
2021/12/26 09:44:38;;;;;;;23.48;19.50;;;;;;;;;;5041898;28;20036;-61
2021/12/26 09:47:05;;;;;;;24.77;19.67;;;;;;;;;;5043550;28;20530;-61
2021/12/26 09:49:33;;;;;;;23.98;20.33;;;;;;;;;;5046544;28;20053;-61
2021/12/26 09:52:00;;;;;;;26.05;20.45;;;;;;;;;;5045674;28;20155;-61
2021/12/26 09:54:26;;;;;;;24.85;20.65;;;;;;;;;;5044330;28;20037;-62
2021/12/26 09:56:53;;;;;;;23.80;19.83;;;;;;;;;;5043523;28;20048;-60
2021/12/26 09:59:27;;;;;;;25.92;20.88;;;;;;;;;;5044541;28;20467;-60
2021/12/26 10:01:56;;;;;;;22.73;19.87;;;;;;;;;;5044770;28;20045;-61
2021/12/26 10:04:44;;;;;;;27.65;21.35;;;;;;;;;;5042559;28;20045;-61
2021/12/26 10:07:14;;;;;;;28.23;22.30;;;;;;;;;;5037911;28;20515;-61
2021/12/26 10:09:44;;;;;;;23.52;19.80;;;;;;;;;;5042033;28;20392;-61
2021/12/26 10:12:14;;;;;;;24.55;21.25;;;;;;;;;;5038632;28;20052;-60
2021/12/26 10:14:43;;;;;;;23.67;20.15;;;;;;;;;;5037163;28;20048;-61
2021/12/26 10:17:14;;;;;;;25.65;22.33;;;;;;;;;;5043827;28;20044;-61
2021/12/26 10:19:44;;;;;;;27.55;21.50;;;;;;;;;;5039962;28;20499;-60
2021/12/26 10:22:17;;;;;;;29.02;24.65;;;;;;;;;;5038454;28;20131;-61
2021/12/26 10:24:49;;;;;;;27.35;24.20;;;;;;;;;;5038961;28;20041;-60
2021/12/26 10:27:29;;;;;;;31.35;25.42;;;;;;;;;;5047941;28;20041;-61
2021/12/26 10:29:57;;;;;;;29.40;26.20;;;;;;;;;;5038100;28;20041;-62
2021/12/26 10:32:37;;;;;;;34.88;27.67;;;;;;;;;;5041260;28;20042;-61
2021/12/26 10:35:17;;;;;;;30.73;25.20;;;;;;;;;;5053182;28;20495;-61
2021/12/26 10:37:50;;;;;;;30.60;25.40;;;;;;;;;;5052079;28;20053;-61
2021/12/26 10:40:26;;;;;;;33.10;27.83;;;;;;;;;;5052329;28;20079;-58
2021/12/26 10:43:02;;;;;;;33.42;27.55;;;;;;;;;;5052068;28;20072;-60
2021/12/26 10:45:34;;;;;;;30.75;26.55;;;;;;;;;;5053473;28;20071;-59
2021/12/26 10:48:06;;;;;;;33.10;28.52;;;;;;;;;;5053338;28;20130;-59
2021/12/26 10:50:38;;;;;;;28.17;25.20;;;;;;;;;;5053407;28;20044;-59
2021/12/26 10:53:08;;;;;;;30.10;26.27;;;;;;;;;;5039687;28;20033;-59
2021/12/26 10:55:51;;;;;;;27.63;24.45;;;;;;;;;;5041711;28;20042;-58
2021/12/26 10:58:21;;;;;;;26.35;23.50;;;;;;;;;;5037793;28;20053;-60
2021/12/26 11:00:52;;;;;;;27.40;22.92;;;;;;;;;;5037138;28;20049;-59
2021/12/26 11:03:22;;;;;;;27.80;24.73;;;;;;;;;;5053158;28;20052;-60
2021/12/26 11:05:54;;;;;;;27.33;22.75;;;;;;;;;;5053417;28;20118;-60
2021/12/26 11:08:28;;;;;;;28.38;24.30;;;;;;;;;;5052804;28;20044;-59
2021/12/26 11:10:56;;;;;;;28.15;23.83;;;;;;;;;;5053558;28;20459;-61
2021/12/26 11:13:26;;;;;;;30.60;24.88;;;;;;;;;;5052728;28;20063;-61
2021/12/26 11:16:01;;;;;;;27.70;24.70;;;;;;;;;;5053328;28;20052;-60
2021/12/26 11:18:29;;;;;;;28.33;23.83;;;;;;;;;;5053018;28;20128;-59
2021/12/26 11:20:58;;;;;;;31.58;24.35;;;;;;;;;;5052888;28;20041;-59
2021/12/26 11:23:29;;;;;;;27.23;21.80;;;;;;;;;;5052566;28;20075;-60
2021/12/26 11:26:10;;;;;;;27.55;23.90;;;;;;;;;;5052422;28;20442;-60
2021/12/26 11:28:42;;;;;;;27.88;23.92;;;;;;;;;;5044587;28;20041;-61
2021/12/26 11:31:30;;;;;;;26.63;21.90;;;;;;;;;;5032082;28;20480;-60
2021/12/26 11:34:00;;;;;;;29.38;25.27;;;;;;;;;;5040046;28;20128;-60
2021/12/26 11:36:29;;;;;;;27.85;24.10;;;;;;;;;;5034447;28;20092;-59
2021/12/26 11:39:17;;;;;;;26.08;22.55;;;;;;;;;;5047286;28;20044;-60
2021/12/26 11:42:05;;;;;;;26.52;21.95;;;;;;;;;;5052228;28;20518;-61
2021/12/26 11:45:10;;;;;;;27.33;23.40;;;;;;;;;;5022961;28;20041;-60
2021/12/26 11:48:23;;;;;;;26.50;23.67;;;;;;;;;;5038885;28;20416;-60
2021/12/26 11:51:56;;;;;;;26.50;23.35;;;;;;;;;;5009970;28;20054;-60
2021/12/26 11:55:10;;;;;;;28.17;24.40;;;;;;;;;;5051214;28;20459;-60
2021/12/26 11:57:43;;;;;;;27.95;23.00;;;;;;;;;;5034274;28;20044;-61
2021/12/26 12:00:33;;;;;;;30.25;25.40;;;;;;;;;;5052283;28;20487;-60
2021/12/26 12:03:03;;;;;;;32.53;26.30;;;;;;;;;;5051984;28;20352;-60
2021/12/26 12:05:40;;;;;;;36.00;26.88;;;;;;;;;;5052295;28;20041;-59
2021/12/26 12:08:09;;;;;;;36.95;26.20;;;;;;;;;;5052033;28;20041;-60
2021/12/26 12:10:42;;;;;;;30.48;24.95;;;;;;;;;;5051727;28;20037;-61
2021/12/26 12:13:21;;;;;;;34.72;26.17;;;;;;;;;;5051514;28;20128;-60
2021/12/26 12:15:52;;;;;;;33.00;25.90;;;;;;;;;;5052058;28;20494;-60
2021/12/26 12:18:35;;;;;;;37.20;27.45;;;;;;;;;;5052256;28;20399;-60
2021/12/26 12:21:22;;;;;;;34.90;27.77;;;;;;;;;;5051418;28;20048;-60
2021/12/26 12:24:00;;;;;;;36.25;28.80;;;;;;;;;;5052215;28;20439;-60
2021/12/26 12:26:53;;;;;;;36.28;28.55;;;;;;;;;;5046920;28;20033;-60
2021/12/26 12:29:29;;;;;;;42.38;29.17;;;;;;;;;;5051936;28;20049;-59
2021/12/26 12:32:17;;;;;;;36.47;29.65;;;;;;;;;;5051625;28;20052;-59
2021/12/26 12:35:08;;;;;;;37.28;29.88;;;;;;;;;;5034550;28;20045;-59
2021/12/26 12:37:42;;;;;;;39.67;29.58;;;;;;;;;;5040667;28;20045;-60
2021/12/26 12:40:19;;;;;;;37.42;27.77;;;;;;;;;;5034467;28;20056;-60
2021/12/26 12:43:09;;;;;;;41.53;30.10;;;;;;;;;;5043208;28;20041;-60
2021/12/26 12:48:27;;;;;;;;;;;;;;;;;;5052317;28;20049;-60
2021/12/26 12:51:24;;;;;;;39.33;30.80;;;;;;;;;;5052139;28;19974;-60
2021/12/26 12:53:55;;;;;;;40.78;30.42;;;;;;;;;;5041299;28;20053;-61
2021/12/26 12:56:35;;;;;;;39.00;32.67;;;;;;;;;;5051789;28;20067;-61
2021/12/26 13:01:51;;;;;;;39.38;31.90;;;;;;;;;;5051762;28;20103;-60
2021/12/26 13:04:20;;;;;;;42.47;32.38;;;;;;;;;;5051433;28;20049;-61
2021/12/26 13:06:55;;;;;;;44.63;33.72;;;;;;;;;;5051694;28;20082;-62
2021/12/26 13:09:23;;;;;;;39.72;32.92;;;;;;;;;;5051034;28;20048;-61
2021/12/26 13:11:51;;;;;;;41.72;32.65;;;;;;;;;;5046101;28;20053;-63
2021/12/26 13:14:40;;;;;;;43.95;33.75;;;;;;;;;;5036069;28;20560;-61
2021/12/26 13:17:15;;;;;;;47.60;34.70;;;;;;;;;;5035294;28;20549;-59
2021/12/26 13:19:43;;;;;;;42.03;32.28;;;;;;;;;;5033935;28;20555;-60
2021/12/26 13:30:54;;;;;;;45.13;34.50;;;;;;;;;;5223026;23;20051;-60
2021/12/26 13:33:25;;;;;;;46.00;35.65;;;;;;;;;;4915936;29;20040;-58
2021/12/26 13:35:52;;;;;;;42.20;33.92;;;;;;;;;;4916250;29;20079;-59
2021/12/26 13:38:21;;;;;;;44.08;32.75;;;;;;;;;;4914813;29;20032;-59
2021/12/26 13:40:50;;;;;;;44.65;35.72;;;;;;;;;;4916663;29;20487;-59
2021/12/26 13:43:28;;;;;;;55.70;38.97;;;;;;;;;;4916600;29;20058;-59
2021/12/26 13:45:56;;;;;;;52.47;38.58;;;;;;;;;;4918565;29;20228;-59
2021/12/26 13:48:35;;;;;;;46.88;37.42;;;;;;;;;;4915350;29;20040;-58
2021/12/26 13:51:28;;;;;;;84.70;56.20;;;;;;;;;;4913565;29;20541;-58
2021/12/26 13:54:05;;;;;;;49.15;37.95;;;;;;;;;;4917024;29;20067;-60
2021/12/26 13:56:44;;;;;;;52.58;35.47;;;;;;;;;;4918022;29;20047;-56
2021/12/26 13:59:45;;;;;;;63.17;45.50;;;;;;;;;;4917148;29;20054;-58
2021/12/26 14:02:16;;;;;;;45.67;37.13;;;;;;;;;;4916907;29;20427;-58
2021/12/26 14:04:44;;;;;;;45.15;35.28;;;;;;;;;;4917900;29;20091;-59
2021/12/26 14:07:17;;;;;;;49.63;34.85;;;;;;;;;;4917493;29;20603;-59
2021/12/26 14:09:46;;;;;;;47.83;36.65;;;;;;;;;;4916322;29;20044;-57
2021/12/26 14:12:35;;;;;;;47.42;33.42;;;;;;;;;;4918223;29;20395;-59
2021/12/26 14:17:55;;;;;;;43.72;34.75;;;;;;;;;;4914776;29;20131;-60
2021/12/26 14:20:26;;;;;;;48.63;35.75;;;;;;;;;;4918144;29;20095;-59
2021/12/26 14:22:54;;;;;;;50.67;38.00;;;;;;;;;;4911290;29;20099;-59
2021/12/26 14:25:21;;;;;;;46.25;36.20;;;;;;;;;;4911242;29;20040;-60
2021/12/26 14:27:49;;;;;;;53.90;40.83;;;;;;;;;;4909313;29;20495;-60
2021/12/26 14:30:16;;;;;;;55.80;40.85;;;;;;;;;;4914438;29;20503;-60
2021/12/26 14:32:57;;;;;;;47.58;36.47;;;;;;;;;;4910131;29;20044;-60
2021/12/26 14:35:24;;;;;;;57.90;41.72;;;;;;;;;;4912494;29;20073;-59
2021/12/26 14:37:51;;;;;;;55.83;42.35;;;;;;;;;;4912549;29;20044;-59
2021/12/26 14:40:18;;;;;;;56.38;39.40;;;;;;;;;;4912811;29;20052;-58
2021/12/26 14:42:47;;;;;;;60.15;41.28;;;;;;;;;;4915251;29;20103;-60
2021/12/26 14:45:18;;;;;;;49.28;37.45;;;;;;;;;;4913328;29;20143;-60
2021/12/26 14:47:46;;;;;;;53.53;40.78;;;;;;;;;;4911815;29;20050;-60
2021/12/26 14:50:18;;;;;;;59.00;44.45;;;;;;;;;;4914237;29;20056;-60
2021/12/26 14:52:51;;;;;;;67.75;47.42;;;;;;;;;;4912207;29;20134;-62
2021/12/26 14:55:38;;;;;;;66.78;49.83;;;;;;;;;;4908847;29;20123;-60
2021/12/26 14:58:07;;;;;;;56.28;42.35;;;;;;;;;;4915048;29;20115;-60
2021/12/26 15:00:34;;;;;;;58.40;42.92;;;;;;;;;;4907946;29;20103;-62
2021/12/26 15:03:02;;;;;;;51.58;40.28;;;;;;;;;;4907298;29;20046;-59
2021/12/26 15:05:30;;;;;;;57.10;41.60;;;;;;;;;;4910126;29;20443;-60
2021/12/26 15:08:09;;;;;;;57.70;42.20;;;;;;;;;;4912469;29;20611;-60
2021/12/26 15:10:41;;;;;;;56.25;40.47;;;;;;;;;;4910907;29;20360;-60